EGHE/ISC METAR and TAF weather

Enter ICAO airport designator
Station Type Date Time Source
EGHE METAR 2018/10/16 16:50 UTC NOAA

EGHE 161650Z 20013KT 9999 8000W -DZ FEW011 BKN016 14/13 Q1015


Station Type Date Time Source
EGHE Decoded METAR 2018/10/16 16:50 UTC NOAA

Scilly, Saint Mary'S, United Kingdom (EGHE) 49-55N 006-18W 0M
Oct 16, 2018 - 12:50 PM EDT / 2018.10.16 1650 UTC
Wind: from the SSW (200 degrees) at 15 MPH (13 KT):0
Visibility: greater than 7 mile(s):0
Sky conditions: mostly cloudy
Weather: light drizzle
Temperature: 57 F (14 C)
Dew Point: 55 F (13 C)
Relative Humidity: 93%
Pressure (altimeter): 29.97 in. Hg (1015 hPa)
ob: EGHE 161650Z 20013KT 9999 8000W -DZ FEW011 BKN016 14/13 Q1015
cycle: 17

Station Type Date Time Source
EGHE TAF UTC NOAA

Error!


Example: see airport list